sensor_id;sensor_type;location;lat;lon;timestamp;P1;durP1;ratioP1;P2;durP2;ratioP2
25381;SDS011;16307;42.896;20.874;2022-08-18T00:02:13;10.48;;;4.57;;
25381;SDS011;16307;42.896;20.874;2022-08-18T00:05:02;8.77;;;4.40;;
25381;SDS011;16307;42.896;20.874;2022-08-18T00:07:51;11.68;;;4.60;;
25381;SDS011;16307;42.896;20.874;2022-08-18T00:10:39;7.15;;;4.20;;
25381;SDS011;16307;42.896;20.874;2022-08-18T00:13:26;8.27;;;4.53;;
25381;SDS011;16307;42.896;20.874;2022-08-18T00:16:12;6.25;;;4.30;;
25381;SDS011;16307;42.896;20.874;2022-08-18T00:18:58;7.68;;;4.70;;
25381;SDS011;16307;42.896;20.874;2022-08-18T00:21:44;6.65;;;4.18;;
25381;SDS011;16307;42.896;20.874;2022-08-18T00:24:30;5.43;;;4.10;;
25381;SDS011;16307;42.896;20.874;2022-08-18T00:27:17;9.77;;;3.95;;
25381;SDS011;16307;42.896;20.874;2022-08-18T00:30:09;5.15;;;4.10;;
25381;SDS011;16307;42.896;20.874;2022-08-18T00:32:57;10.60;;;4.60;;
25381;SDS011;16307;42.896;20.874;2022-08-18T00:35:43;8.55;;;4.05;;
25381;SDS011;16307;42.896;20.874;2022-08-18T00:38:29;7.22;;;4.57;;
25381;SDS011;16307;42.896;20.874;2022-08-18T00:41:15;9.13;;;4.85;;
25381;SDS011;16307;42.896;20.874;2022-08-18T00:44:02;9.85;;;4.60;;
25381;SDS011;16307;42.896;20.874;2022-08-18T00:46:49;6.65;;;4.35;;
25381;SDS011;16307;42.896;20.874;2022-08-18T00:49:35;9.38;;;4.35;;
25381;SDS011;16307;42.896;20.874;2022-08-18T00:52:22;9.60;;;4.40;;
25381;SDS011;16307;42.896;20.874;2022-08-18T00:55:09;9.00;;;4.63;;
25381;SDS011;16307;42.896;20.874;2022-08-18T00:57:59;6.05;;;4.05;;
25381;SDS011;16307;42.896;20.874;2022-08-18T01:00:49;6.00;;;4.30;;
25381;SDS011;16307;42.896;20.874;2022-08-18T01:03:35;7.82;;;4.18;;
25381;SDS011;16307;42.896;20.874;2022-08-18T01:09:31;11.25;;;4.88;;
25381;SDS011;16307;42.896;20.874;2022-08-18T01:12:17;7.38;;;4.32;;
25381;SDS011;16307;42.896;20.874;2022-08-18T01:15:24;8.15;;;5.03;;
25381;SDS011;16307;42.896;20.874;2022-08-18T01:18:15;7.10;;;4.43;;
25381;SDS011;16307;42.896;20.874;2022-08-18T01:21:21;11.43;;;4.68;;
25381;SDS011;16307;42.896;20.874;2022-08-18T01:24:33;7.83;;;4.20;;
25381;SDS011;16307;42.896;20.874;2022-08-18T01:27:38;8.45;;;4.47;;
25381;SDS011;16307;42.896;20.874;2022-08-18T01:30:27;7.93;;;4.13;;
25381;SDS011;16307;42.896;20.874;2022-08-18T01:33:14;6.82;;;4.38;;
25381;SDS011;16307;42.896;20.874;2022-08-18T01:36:19;6.53;;;4.18;;
25381;SDS011;16307;42.896;20.874;2022-08-18T01:39:08;6.03;;;4.20;;
25381;SDS011;16307;42.896;20.874;2022-08-18T01:41:55;7.78;;;4.68;;
25381;SDS011;16307;42.896;20.874;2022-08-18T01:44:42;9.50;;;4.47;;
25381;SDS011;16307;42.896;20.874;2022-08-18T01:47:29;7.57;;;4.10;;
25381;SDS011;16307;42.896;20.874;2022-08-18T01:50:34;6.45;;;4.60;;
25381;SDS011;16307;42.896;20.874;2022-08-18T01:53:21;10.60;;;4.75;;
25381;SDS011;16307;42.896;20.874;2022-08-18T01:56:07;9.75;;;4.85;;
25381;SDS011;16307;42.896;20.874;2022-08-18T01:58:54;7.85;;;4.63;;
25381;SDS011;16307;42.896;20.874;2022-08-18T02:01:42;7.22;;;4.75;;
25381;SDS011;16307;42.896;20.874;2022-08-18T02:04:37;6.38;;;4.50;;
25381;SDS011;16307;42.896;20.874;2022-08-18T02:07:23;8.02;;;4.30;;
25381;SDS011;16307;42.896;20.874;2022-08-18T02:10:21;6.95;;;4.43;;
25381;SDS011;16307;42.896;20.874;2022-08-18T02:13:07;6.15;;;4.50;;
25381;SDS011;16307;42.896;20.874;2022-08-18T02:15:53;6.57;;;4.40;;
25381;SDS011;16307;42.896;20.874;2022-08-18T02:18:39;6.90;;;4.53;;
25381;SDS011;16307;42.896;20.874;2022-08-18T02:21:32;7.50;;;5.05;;
25381;SDS011;16307;42.896;20.874;2022-08-18T02:24:18;6.70;;;4.75;;
25381;SDS011;16307;42.896;20.874;2022-08-18T02:27:05;8.30;;;4.88;;
25381;SDS011;16307;42.896;20.874;2022-08-18T02:29:52;11.68;;;5.20;;
25381;SDS011;16307;42.896;20.874;2022-08-18T02:32:39;14.02;;;4.43;;
25381;SDS011;16307;42.896;20.874;2022-08-18T02:35:25;8.80;;;4.47;;
25381;SDS011;16307;42.896;20.874;2022-08-18T02:38:11;9.07;;;4.70;;
25381;SDS011;16307;42.896;20.874;2022-08-18T02:41:02;8.73;;;4.00;;
25381;SDS011;16307;42.896;20.874;2022-08-18T02:43:51;7.72;;;4.57;;
25381;SDS011;16307;42.896;20.874;2022-08-18T02:46:38;7.97;;;4.43;;
25381;SDS011;16307;42.896;20.874;2022-08-18T02:49:24;8.13;;;4.80;;
25381;SDS011;16307;42.896;20.874;2022-08-18T02:52:10;7.28;;;4.70;;
25381;SDS011;16307;42.896;20.874;2022-08-18T02:54:57;7.97;;;5.03;;
25381;SDS011;16307;42.896;20.874;2022-08-18T02:57:46;8.38;;;5.30;;
25381;SDS011;16307;42.896;20.874;2022-08-18T03:00:33;6.20;;;4.68;;
25381;SDS011;16307;42.896;20.874;2022-08-18T03:03:19;6.63;;;4.45;;
25381;SDS011;16307;42.896;20.874;2022-08-18T03:06:05;6.57;;;4.68;;
25381;SDS011;16307;42.896;20.874;2022-08-18T03:08:52;7.57;;;4.65;;
25381;SDS011;16307;42.896;20.874;2022-08-18T03:11:38;7.72;;;5.15;;
25381;SDS011;16307;42.896;20.874;2022-08-18T03:14:28;10.60;;;4.93;;
25381;SDS011;16307;42.896;20.874;2022-08-18T03:17:14;7.18;;;4.63;;
25381;SDS011;16307;42.896;20.874;2022-08-18T03:20:00;7.45;;;4.65;;
25381;SDS011;16307;42.896;20.874;2022-08-18T03:22:47;11.73;;;4.82;;
25381;SDS011;16307;42.896;20.874;2022-08-18T03:25:34;7.90;;;4.75;;
25381;SDS011;16307;42.896;20.874;2022-08-18T03:28:20;8.32;;;5.00;;
25381;SDS011;16307;42.896;20.874;2022-08-18T03:31:07;8.27;;;4.55;;
25381;SDS011;16307;42.896;20.874;2022-08-18T03:33:55;10.73;;;4.47;;
25381;SDS011;16307;42.896;20.874;2022-08-18T03:36:44;11.25;;;5.05;;
25381;SDS011;16307;42.896;20.874;2022-08-18T03:39:30;7.35;;;5.45;;
25381;SDS011;16307;42.896;20.874;2022-08-18T03:42:16;9.80;;;5.45;;
25381;SDS011;16307;42.896;20.874;2022-08-18T03:45:03;9.65;;;5.55;;
25381;SDS011;16307;42.896;20.874;2022-08-18T03:48:02;9.55;;;5.10;;
25381;SDS011;16307;42.896;20.874;2022-08-18T03:50:48;8.73;;;4.65;;
25381;SDS011;16307;42.896;20.874;2022-08-18T03:53:34;6.30;;;4.75;;
25381;SDS011;16307;42.896;20.874;2022-08-18T03:56:22;8.18;;;4.85;;
25381;SDS011;16307;42.896;20.874;2022-08-18T03:59:14;7.95;;;4.72;;
25381;SDS011;16307;42.896;20.874;2022-08-18T04:02:04;9.18;;;5.25;;
25381;SDS011;16307;42.896;20.874;2022-08-18T04:04:50;10.05;;;4.78;;
25381;SDS011;16307;42.896;20.874;2022-08-18T04:07:36;10.50;;;4.97;;
25381;SDS011;16307;42.896;20.874;2022-08-18T04:10:22;8.15;;;5.32;;
25381;SDS011;16307;42.896;20.874;2022-08-18T04:13:09;10.00;;;5.20;;
25381;SDS011;16307;42.896;20.874;2022-08-18T04:15:57;8.40;;;5.25;;
25381;SDS011;16307;42.896;20.874;2022-08-18T04:18:44;9.32;;;5.65;;
25381;SDS011;16307;42.896;20.874;2022-08-18T04:21:31;9.43;;;5.60;;
25381;SDS011;16307;42.896;20.874;2022-08-18T04:24:20;11.90;;;5.70;;
25381;SDS011;16307;42.896;20.874;2022-08-18T04:27:06;13.32;;;5.45;;
25381;SDS011;16307;42.896;20.874;2022-08-18T04:29:52;8.80;;;5.55;;
25381;SDS011;16307;42.896;20.874;2022-08-18T04:32:38;7.25;;;5.13;;
25381;SDS011;16307;42.896;20.874;2022-08-18T04:35:24;9.25;;;5.75;;
25381;SDS011;16307;42.896;20.874;2022-08-18T04:38:13;9.02;;;6.68;;
25381;SDS011;16307;42.896;20.874;2022-08-18T04:40:59;12.57;;;6.20;;
25381;SDS011;16307;42.896;20.874;2022-08-18T04:43:45;13.43;;;7.10;;
25381;SDS011;16307;42.896;20.874;2022-08-18T04:46:35;9.60;;;5.90;;
25381;SDS011;16307;42.896;20.874;2022-08-18T04:49:24;14.02;;;7.38;;
25381;SDS011;16307;42.896;20.874;2022-08-18T04:52:10;17.75;;;6.60;;
25381;SDS011;16307;42.896;20.874;2022-08-18T04:55:25;12.85;;;5.93;;
25381;SDS011;16307;42.896;20.874;2022-08-18T04:58:14;9.50;;;5.22;;
25381;SDS011;16307;42.896;20.874;2022-08-18T05:01:01;11.48;;;5.85;;
25381;SDS011;16307;42.896;20.874;2022-08-18T05:03:48;7.22;;;5.18;;
25381;SDS011;16307;42.896;20.874;2022-08-18T05:06:35;7.00;;;4.75;;
25381;SDS011;16307;42.896;20.874;2022-08-18T05:09:22;11.80;;;5.50;;
25381;SDS011;16307;42.896;20.874;2022-08-18T05:12:08;11.20;;;5.72;;
25381;SDS011;16307;42.896;20.874;2022-08-18T05:14:58;14.60;;;6.90;;
25381;SDS011;16307;42.896;20.874;2022-08-18T05:17:44;9.25;;;5.93;;
25381;SDS011;16307;42.896;20.874;2022-08-18T05:20:35;8.95;;;5.00;;
25381;SDS011;16307;42.896;20.874;2022-08-18T05:23:23;10.73;;;5.13;;
25381;SDS011;16307;42.896;20.874;2022-08-18T05:26:10;7.68;;;5.05;;
25381;SDS011;16307;42.896;20.874;2022-08-18T05:28:58;7.97;;;5.10;;
25381;SDS011;16307;42.896;20.874;2022-08-18T05:32:03;8.82;;;5.20;;
25381;SDS011;16307;42.896;20.874;2022-08-18T05:34:53;8.52;;;5.55;;
25381;SDS011;16307;42.896;20.874;2022-08-18T05:40:43;10.10;;;5.15;;
25381;SDS011;16307;42.896;20.874;2022-08-18T05:43:35;6.38;;;4.82;;
25381;SDS011;16307;42.896;20.874;2022-08-18T05:49:33;8.30;;;5.35;;
25381;SDS011;16307;42.896;20.874;2022-08-18T05:52:37;8.68;;;4.93;;
